sensor_id;sensor_type;location;lat;lon;timestamp;temperature;humidity
22747;DHT22;11540;52.130;5.648;2022-09-13T00:00:25;17.90;99.90
22747;DHT22;11540;52.130;5.648;2022-09-13T00:02:51;17.90;99.90
22747;DHT22;11540;52.130;5.648;2022-09-13T00:05:16;17.90;99.90
22747;DHT22;11540;52.130;5.648;2022-09-13T00:07:42;17.90;99.90
22747;DHT22;11540;52.130;5.648;2022-09-13T00:10:07;17.90;99.90
22747;DHT22;11540;52.130;5.648;2022-09-13T00:12:33;17.90;99.90
22747;DHT22;11540;52.130;5.648;2022-09-13T00:14:59;17.90;99.90
22747;DHT22;11540;52.130;5.648;2022-09-13T00:17:25;17.90;99.90
22747;DHT22;11540;52.130;5.648;2022-09-13T00:19:51;17.90;99.90
22747;DHT22;11540;52.130;5.648;2022-09-13T00:22:16;17.90;99.90
22747;DHT22;11540;52.130;5.648;2022-09-13T00:24:42;17.90;99.90
22747;DHT22;11540;52.130;5.648;2022-09-13T00:27:08;17.90;99.90
22747;DHT22;11540;52.130;5.648;2022-09-13T00:29:33;17.90;99.90
22747;DHT22;11540;52.130;5.648;2022-09-13T00:31:59;17.90;99.90
22747;DHT22;11540;52.130;5.648;2022-09-13T00:34:24;18.00;99.90
22747;DHT22;11540;52.130;5.648;2022-09-13T00:36:50;18.00;99.90
22747;DHT22;11540;52.130;5.648;2022-09-13T00:39:15;18.00;99.90
22747;DHT22;11540;52.130;5.648;2022-09-13T00:41:40;18.00;99.90
22747;DHT22;11540;52.130;5.648;2022-09-13T00:47:14;18.00;99.90
22747;DHT22;11540;52.130;5.648;2022-09-13T00:49:41;18.00;99.90
22747;DHT22;11540;52.130;5.648;2022-09-13T00:52:13;18.00;99.90
22747;DHT22;11540;52.130;5.648;2022-09-13T00:54:46;18.00;99.90
22747;DHT22;11540;52.130;5.648;2022-09-13T00:57:14;18.00;99.90
22747;DHT22;11540;52.130;5.648;2022-09-13T00:59:47;18.00;99.90
22747;DHT22;11540;52.130;5.648;2022-09-13T01:02:14;18.00;99.90
22747;DHT22;11540;52.130;5.648;2022-09-13T01:04:40;18.10;99.90
22747;DHT22;11540;52.130;5.648;2022-09-13T01:07:09;18.10;99.90
22747;DHT22;11540;52.130;5.648;2022-09-13T01:09:38;18.00;99.90
22747;DHT22;11540;52.130;5.648;2022-09-13T01:14:43;18.00;99.90
22747;DHT22;11540;52.130;5.648;2022-09-13T01:17:10;18.00;99.90
22747;DHT22;11540;52.130;5.648;2022-09-13T01:19:36;18.00;99.90
22747;DHT22;11540;52.130;5.648;2022-09-13T01:28:16;17.90;99.90
22747;DHT22;11540;52.130;5.648;2022-09-13T01:41:46;17.80;99.90
22747;DHT22;11540;52.130;5.648;2022-09-13T01:55:33;17.80;99.90
22747;DHT22;11540;52.130;5.648;2022-09-13T02:00:42;17.80;99.90
22747;DHT22;11540;52.130;5.648;2022-09-13T02:03:15;17.70;99.90
22747;DHT22;11540;52.130;5.648;2022-09-13T02:05:55;17.80;99.90
22747;DHT22;11540;52.130;5.648;2022-09-13T02:08:23;17.70;99.90
22747;DHT22;11540;52.130;5.648;2022-09-13T02:10:59;17.70;99.90
22747;DHT22;11540;52.130;5.648;2022-09-13T02:13:31;17.60;99.90
22747;DHT22;11540;52.130;5.648;2022-09-13T02:16:04;17.60;99.90
22747;DHT22;11540;52.130;5.648;2022-09-13T02:18:34;17.50;99.90
22747;DHT22;11540;52.130;5.648;2022-09-13T02:21:09;17.50;99.90
22747;DHT22;11540;52.130;5.648;2022-09-13T02:23:41;17.50;99.90
22747;DHT22;11540;52.130;5.648;2022-09-13T02:26:08;17.50;99.90
22747;DHT22;11540;52.130;5.648;2022-09-13T02:28:40;17.50;99.90
22747;DHT22;11540;52.130;5.648;2022-09-13T02:31:08;17.40;99.90
22747;DHT22;11540;52.130;5.648;2022-09-13T02:33:43;17.40;99.90
22747;DHT22;11540;52.130;5.648;2022-09-13T02:36:21;17.40;99.90
22747;DHT22;11540;52.130;5.648;2022-09-13T02:39:02;17.40;99.90
22747;DHT22;11540;52.130;5.648;2022-09-13T02:44:34;17.30;99.90
22747;DHT22;11540;52.130;5.648;2022-09-13T02:55:41;17.40;99.90
22747;DHT22;11540;52.130;5.648;2022-09-13T02:58:27;17.40;99.90
22747;DHT22;11540;52.130;5.648;2022-09-13T03:00:53;17.40;99.90
22747;DHT22;11540;52.130;5.648;2022-09-13T03:03:20;17.40;99.90
22747;DHT22;11540;52.130;5.648;2022-09-13T03:05:45;17.40;99.90
22747;DHT22;11540;52.130;5.648;2022-09-13T03:08:12;17.40;99.90
22747;DHT22;11540;52.130;5.648;2022-09-13T03:16:32;17.50;99.90
22747;DHT22;11540;52.130;5.648;2022-09-13T03:19:19;17.50;99.90
22747;DHT22;11540;52.130;5.648;2022-09-13T03:24:59;17.50;99.90
22747;DHT22;11540;52.130;5.648;2022-09-13T03:27:41;17.50;99.90
22747;DHT22;11540;52.130;5.648;2022-09-13T03:30:13;17.50;99.90
22747;DHT22;11540;52.130;5.648;2022-09-13T03:35:33;17.50;99.90
22747;DHT22;11540;52.130;5.648;2022-09-13T03:43:49;17.30;99.90
22747;DHT22;11540;52.130;5.648;2022-09-13T03:48:51;17.10;99.90
22747;DHT22;11540;52.130;5.648;2022-09-13T03:51:17;17.10;99.90
22747;DHT22;11540;52.130;5.648;2022-09-13T03:53:51;17.00;99.90
22747;DHT22;11540;52.130;5.648;2022-09-13T03:56:19;17.00;99.90
22747;DHT22;11540;52.130;5.648;2022-09-13T03:58:45;17.00;99.90
22747;DHT22;11540;52.130;5.648;2022-09-13T04:01:12;16.90;99.90
22747;DHT22;11540;52.130;5.648;2022-09-13T04:03:38;16.90;99.90
22747;DHT22;11540;52.130;5.648;2022-09-13T04:06:04;16.90;99.90
22747;DHT22;11540;52.130;5.648;2022-09-13T04:08:30;16.90;99.90
22747;DHT22;11540;52.130;5.648;2022-09-13T04:10:56;16.90;99.90
22747;DHT22;11540;52.130;5.648;2022-09-13T04:13:22;16.90;99.90
22747;DHT22;11540;52.130;5.648;2022-09-13T04:15:49;16.90;99.90
22747;DHT22;11540;52.130;5.648;2022-09-13T04:18:15;16.90;99.90
22747;DHT22;11540;52.130;5.648;2022-09-13T04:20:41;16.90;99.90
22747;DHT22;11540;52.130;5.648;2022-09-13T04:23:06;17.00;99.90
22747;DHT22;11540;52.130;5.648;2022-09-13T04:25:32;17.00;99.90
22747;DHT22;11540;52.130;5.648;2022-09-13T04:27:57;17.10;99.90
22747;DHT22;11540;52.130;5.648;2022-09-13T04:30:26;17.10;99.90
22747;DHT22;11540;52.130;5.648;2022-09-13T04:32:52;17.10;99.90
22747;DHT22;11540;52.130;5.648;2022-09-13T04:35:20;17.10;99.90
22747;DHT22;11540;52.130;5.648;2022-09-13T04:37:46;17.10;99.90
22747;DHT22;11540;52.130;5.648;2022-09-13T04:40:11;17.10;99.90
22747;DHT22;11540;52.130;5.648;2022-09-13T04:42:38;17.20;99.90
22747;DHT22;11540;52.130;5.648;2022-09-13T04:45:04;17.20;99.90
22747;DHT22;11540;52.130;5.648;2022-09-13T04:47:30;17.20;99.90
22747;DHT22;11540;52.130;5.648;2022-09-13T04:49:56;17.20;99.90
22747;DHT22;11540;52.130;5.648;2022-09-13T04:52:22;17.20;99.90
22747;DHT22;11540;52.130;5.648;2022-09-13T04:54:48;17.20;99.90
22747;DHT22;11540;52.130;5.648;2022-09-13T04:57:14;17.30;99.90
22747;DHT22;11540;52.130;5.648;2022-09-13T04:59:41;17.20;99.90
22747;DHT22;11540;52.130;5.648;2022-09-13T05:02:07;17.30;99.90
22747;DHT22;11540;52.130;5.648;2022-09-13T05:04:32;17.30;99.90
22747;DHT22;11540;52.130;5.648;2022-09-13T05:06:58;17.30;99.90
22747;DHT22;11540;52.130;5.648;2022-09-13T05:09:23;17.20;99.90
22747;DHT22;11540;52.130;5.648;2022-09-13T05:11:49;17.20;99.90
22747;DHT22;11540;52.130;5.648;2022-09-13T05:14:15;17.20;99.90
22747;DHT22;11540;52.130;5.648;2022-09-13T05:16:41;17.20;99.90
22747;DHT22;11540;52.130;5.648;2022-09-13T05:19:06;17.20;99.90
22747;DHT22;11540;52.130;5.648;2022-09-13T05:21:32;17.20;99.90
22747;DHT22;11540;52.130;5.648;2022-09-13T05:23:58;17.20;99.90
22747;DHT22;11540;52.130;5.648;2022-09-13T05:26:26;17.30;99.90
22747;DHT22;11540;52.130;5.648;2022-09-13T05:28:53;17.30;99.90
22747;DHT22;11540;52.130;5.648;2022-09-13T05:31:33;17.30;99.90
22747;DHT22;11540;52.130;5.648;2022-09-13T05:34:02;17.30;99.90
22747;DHT22;11540;52.130;5.648;2022-09-13T05:36:27;17.30;99.90
22747;DHT22;11540;52.130;5.648;2022-09-13T05:38:54;17.30;99.90
22747;DHT22;11540;52.130;5.648;2022-09-13T05:41:19;17.30;99.90
22747;DHT22;11540;52.130;5.648;2022-09-13T05:43:45;17.30;99.90
22747;DHT22;11540;52.130;5.648;2022-09-13T05:46:13;17.30;99.90
22747;DHT22;11540;52.130;5.648;2022-09-13T05:48:39;17.30;99.90
22747;DHT22;11540;52.130;5.648;2022-09-13T05:51:08;17.40;99.90
22747;DHT22;11540;52.130;5.648;2022-09-13T05:53:36;17.40;99.90
22747;DHT22;11540;52.130;5.648;2022-09-13T05:56:04;17.40;99.90
22747;DHT22;11540;52.130;5.648;2022-09-13T05:58:30;17.40;99.90
22747;DHT22;11540;52.130;5.648;2022-09-13T06:00:56;17.50;99.90
22747;DHT22;11540;52.130;5.648;2022-09-13T06:03:23;17.50;99.90
22747;DHT22;11540;52.130;5.648;2022-09-13T06:05:48;17.60;99.90
22747;DHT22;11540;52.130;5.648;2022-09-13T06:08:14;17.60;99.90
22747;DHT22;11540;52.130;5.648;2022-09-13T06:10:40;17.70;99.90
22747;DHT22;11540;52.130;5.648;2022-09-13T06:13:07;17.70;99.90
22747;DHT22;11540;52.130;5.648;2022-09-13T06:15:32;17.80;99.90
22747;DHT22;11540;52.130;5.648;2022-09-13T06:17:58;17.80;99.90
22747;DHT22;11540;52.130;5.648;2022-09-13T06:20:23;17.90;99.90
22747;DHT22;11540;52.130;5.648;2022-09-13T06:22:49;18.00;99.90
22747;DHT22;11540;52.130;5.648;2022-09-13T06:25:15;18.00;99.90
22747;DHT22;11540;52.130;5.648;2022-09-13T06:27:41;18.00;99.90
22747;DHT22;11540;52.130;5.648;2022-09-13T06:30:07;18.10;99.90
22747;DHT22;11540;52.130;5.648;2022-09-13T06:32:33;18.10;99.90
22747;DHT22;11540;52.130;5.648;2022-09-13T06:34:59;18.10;99.90
22747;DHT22;11540;52.130;5.648;2022-09-13T06:37:25;18.20;99.90
22747;DHT22;11540;52.130;5.648;2022-09-13T06:39:50;18.20;99.90
22747;DHT22;11540;52.130;5.648;2022-09-13T06:42:16;18.30;99.90
22747;DHT22;11540;52.130;5.648;2022-09-13T06:44:41;18.30;99.90
22747;DHT22;11540;52.130;5.648;2022-09-13T06:47:07;18.40;99.90
22747;DHT22;11540;52.130;5.648;2022-09-13T06:49:33;18.40;99.90
22747;DHT22;11540;52.130;5.648;2022-09-13T06:51:58;18.50;99.90
22747;DHT22;11540;52.130;5.648;2022-09-13T06:54:24;18.50;99.90
22747;DHT22;11540;52.130;5.648;2022-09-13T06:56:49;18.60;99.90
22747;DHT22;11540;52.130;5.648;2022-09-13T06:59:15;18.60;99.90
22747;DHT22;11540;52.130;5.648;2022-09-13T07:01:42;18.70;99.90
22747;DHT22;11540;52.130;5.648;2022-09-13T07:04:13;18.80;99.90
22747;DHT22;11540;52.130;5.648;2022-09-13T07:06:41;18.80;99.90
22747;DHT22;11540;52.130;5.648;2022-09-13T07:09:12;18.90;99.90
22747;DHT22;11540;52.130;5.648;2022-09-13T07:11:40;18.90;99.90
22747;DHT22;11540;52.130;5.648;2022-09-13T07:14:06;19.00;99.90
22747;DHT22;11540;52.130;5.648;2022-09-13T07:16:36;19.10;99.90
22747;DHT22;11540;52.130;5.648;2022-09-13T07:19:07;19.10;99.90
22747;DHT22;11540;52.130;5.648;2022-09-13T07:21:35;19.20;99.90
22747;DHT22;11540;52.130;5.648;2022-09-13T07:24:01;19.20;99.90
22747;DHT22;11540;52.130;5.648;2022-09-13T07:26:27;19.20;99.90
22747;DHT22;11540;52.130;5.648;2022-09-13T07:28:55;19.30;99.90
22747;DHT22;11540;52.130;5.648;2022-09-13T07:34:00;19.50;99.90
22747;DHT22;11540;52.130;5.648;2022-09-13T07:36:27;19.60;99.90
22747;DHT22;11540;52.130;5.648;2022-09-13T07:38:53;19.60;99.90
22747;DHT22;11540;52.130;5.648;2022-09-13T07:41:20;19.60;99.90
22747;DHT22;11540;52.130;5.648;2022-09-13T07:43:47;19.70;99.90
22747;DHT22;11540;52.130;5.648;2022-09-13T07:46:14;19.80;99.90
22747;DHT22;11540;52.130;5.648;2022-09-13T07:48:42;19.80;99.90
22747;DHT22;11540;52.130;5.648;2022-09-13T07:53:39;19.90;99.90
22747;DHT22;11540;52.130;5.648;2022-09-13T07:58:34;20.10;99.90
22747;DHT22;11540;52.130;5.648;2022-09-13T08:01:22;20.20;99.90
22747;DHT22;11540;52.130;5.648;2022-09-13T08:03:59;20.30;99.90
22747;DHT22;11540;52.130;5.648;2022-09-13T08:06:27;20.50;99.90
22747;DHT22;11540;52.130;5.648;2022-09-13T08:08:53;20.60;99.90
22747;DHT22;11540;52.130;5.648;2022-09-13T08:11:22;20.70;99.90
22747;DHT22;11540;52.130;5.648;2022-09-13T08:13:49;20.90;99.90
22747;DHT22;11540;52.130;5.648;2022-09-13T08:16:17;21.10;99.90
22747;DHT22;11540;52.130;5.648;2022-09-13T08:18:47;21.20;99.90
22747;DHT22;11540;52.130;5.648;2022-09-13T08:21:13;21.20;99.90
22747;DHT22;11540;52.130;5.648;2022-09-13T08:23:39;21.30;99.90
22747;DHT22;11540;52.130;5.648;2022-09-13T08:26:05;21.40;99.90
22747;DHT22;11540;52.130;5.648;2022-09-13T08:28:33;21.40;99.90
22747;DHT22;11540;52.130;5.648;2022-09-13T08:31:10;21.50;99.90
22747;DHT22;11540;52.130;5.648;2022-09-13T08:33:36;21.60;99.90
22747;DHT22;11540;52.130;5.648;2022-09-13T08:36:03;21.60;99.90
22747;DHT22;11540;52.130;5.648;2022-09-13T08:38:29;21.80;99.90
22747;DHT22;11540;52.130;5.648;2022-09-13T08:41:01;21.80;99.90
22747;DHT22;11540;52.130;5.648;2022-09-13T08:46:35;21.90;99.90
22747;DHT22;11540;52.130;5.648;2022-09-13T08:49:07;21.90;99.90
22747;DHT22;11540;52.130;5.648;2022-09-13T08:51:46;22.00;99.90
22747;DHT22;11540;52.130;5.648;2022-09-13T08:54:14;21.90;99.90
22747;DHT22;11540;52.130;5.648;2022-09-13T08:56:45;21.80;99.90
22747;DHT22;11540;52.130;5.648;2022-09-13T09:07:23;21.60;99.90
22747;DHT22;11540;52.130;5.648;2022-09-13T09:10:01;21.70;99.90
22747;DHT22;11540;52.130;5.648;2022-09-13T09:12:32;21.80;99.90
22747;DHT22;11540;52.130;5.648;2022-09-13T09:15:26;21.90;99.90
22747;DHT22;11540;52.130;5.648;2022-09-13T09:18:05;22.10;99.90
22747;DHT22;11540;52.130;5.648;2022-09-13T09:20:44;22.00;99.90
22747;DHT22;11540;52.130;5.648;2022-09-13T09:23:17;21.90;99.90
22747;DHT22;11540;52.130;5.648;2022-09-13T09:25:43;22.00;99.90
22747;DHT22;11540;52.130;5.648;2022-09-13T09:28:16;22.10;99.90
22747;DHT22;11540;52.130;5.648;2022-09-13T09:30:50;22.30;99.90
22747;DHT22;11540;52.130;5.648;2022-09-13T09:33:46;22.30;99.90
22747;DHT22;11540;52.130;5.648;2022-09-13T09:37:25;22.30;99.90
22747;DHT22;11540;52.130;5.648;2022-09-13T09:39:28;22.20;99.90
22747;DHT22;11540;52.130;5.648;2022-09-13T09:41:57;22.10;99.90
22747;DHT22;11540;52.130;5.648;2022-09-13T09:44:26;21.90;99.90
22747;DHT22;11540;52.130;5.648;2022-09-13T09:46:59;21.90;99.90
22747;DHT22;11540;52.130;5.648;2022-09-13T09:50:15;21.90;99.90
22747;DHT22;11540;52.130;5.648;2022-09-13T09:52:56;22.00;99.90
22747;DHT22;11540;52.130;5.648;2022-09-13T09:55:34;22.10;99.90
22747;DHT22;11540;52.130;5.648;2022-09-13T09:58:06;22.30;99.90
22747;DHT22;11540;52.130;5.648;2022-09-13T10:00:56;22.50;99.90
22747;DHT22;11540;52.130;5.648;2022-09-13T10:03:27;22.40;99.90
22747;DHT22;11540;52.130;5.648;2022-09-13T10:06:05;22.50;99.90
22747;DHT22;11540;52.130;5.648;2022-09-13T10:08:35;22.80;99.90
22747;DHT22;11540;52.130;5.648;2022-09-13T10:11:02;23.10;99.90
22747;DHT22;11540;52.130;5.648;2022-09-13T10:13:29;23.40;99.90
22747;DHT22;11540;52.130;5.648;2022-09-13T10:15:58;23.40;99.90
22747;DHT22;11540;52.130;5.648;2022-09-13T10:18:32;23.20;99.90
22747;DHT22;11540;52.130;5.648;2022-09-13T10:23:26;23.20;99.90
22747;DHT22;11540;52.130;5.648;2022-09-13T10:26:05;23.20;99.90
22747;DHT22;11540;52.130;5.648;2022-09-13T10:29:19;23.20;99.90
22747;DHT22;11540;52.130;5.648;2022-09-13T10:31:20;23.30;99.90
22747;DHT22;11540;52.130;5.648;2022-09-13T10:37:15;23.30;99.90
22747;DHT22;11540;52.130;5.648;2022-09-13T10:39:58;23.30;99.90
22747;DHT22;11540;52.130;5.648;2022-09-13T10:42:26;23.20;99.90
22747;DHT22;11540;52.130;5.648;2022-09-13T10:45:07;23.30;99.90
22747;DHT22;11540;52.130;5.648;2022-09-13T10:47:51;23.20;99.90
22747;DHT22;11540;52.130;5.648;2022-09-13T10:50:24;23.30;99.90
22747;DHT22;11540;52.130;5.648;2022-09-13T10:52:51;23.40;99.90
22747;DHT22;11540;52.130;5.648;2022-09-13T10:57:48;23.60;99.90
22747;DHT22;11540;52.130;5.648;2022-09-13T11:00:16;23.50;99.90
22747;DHT22;11540;52.130;5.648;2022-09-13T11:05:29;23.20;99.90
22747;DHT22;11540;52.130;5.648;2022-09-13T11:08:27;23.30;99.90
22747;DHT22;11540;52.130;5.648;2022-09-13T11:30:18;25.90;99.90
22747;DHT22;11540;52.130;5.648;2022-09-13T11:33:06;26.30;99.90
22747;DHT22;11540;52.130;5.648;2022-09-13T11:41:37;26.50;99.90
22747;DHT22;11540;52.130;5.648;2022-09-13T11:46:49;26.00;99.90
22747;DHT22;11540;52.130;5.648;2022-09-13T11:49:47;26.10;99.90
22747;DHT22;11540;52.130;5.648;2022-09-13T11:52:29;26.40;99.90
22747;DHT22;11540;52.130;5.648;2022-09-13T11:55:10;26.80;99.90
22747;DHT22;11540;52.130;5.648;2022-09-13T11:57:54;26.80;99.90
22747;DHT22;11540;52.130;5.648;2022-09-13T12:00:23;26.50;99.90
22747;DHT22;11540;52.130;5.648;2022-09-13T12:03:20;25.70;99.90
22747;DHT22;11540;52.130;5.648;2022-09-13T12:05:51;25.70;99.90
22747;DHT22;11540;52.130;5.648;2022-09-13T12:08:31;26.30;99.90
22747;DHT22;11540;52.130;5.648;2022-09-13T12:13:31;26.40;99.90
22747;DHT22;11540;52.130;5.648;2022-09-13T12:16:01;26.90;99.90
22747;DHT22;11540;52.130;5.648;2022-09-13T12:18:31;27.30;99.90
22747;DHT22;11540;52.130;5.648;2022-09-13T12:21:07;27.80;99.90
22747;DHT22;11540;52.130;5.648;2022-09-13T12:27:04;28.70;99.90
22747;DHT22;11540;52.130;5.648;2022-09-13T12:29:39;29.10;99.90
22747;DHT22;11540;52.130;5.648;2022-09-13T12:32:09;29.30;99.90
22747;DHT22;11540;52.130;5.648;2022-09-13T12:34:45;29.40;99.90
22747;DHT22;11540;52.130;5.648;2022-09-13T12:54:11;29.40;99.90
22747;DHT22;11540;52.130;5.648;2022-09-13T12:59:18;27.90;99.90
22747;DHT22;11540;52.130;5.648;2022-09-13T13:01:48;28.40;99.90
22747;DHT22;11540;52.130;5.648;2022-09-13T13:07:06;29.00;99.90
22747;DHT22;11540;52.130;5.648;2022-09-13T13:12:05;29.80;99.90
22747;DHT22;11540;52.130;5.648;2022-09-13T13:14:50;29.70;99.90
22747;DHT22;11540;52.130;5.648;2022-09-13T13:23:32;29.40;99.90
22747;DHT22;11540;52.130;5.648;2022-09-13T13:29:04;28.70;99.90
22747;DHT22;11540;52.130;5.648;2022-09-13T13:34:46;28.20;99.90
22747;DHT22;11540;52.130;5.648;2022-09-13T13:36:46;28.40;99.90
22747;DHT22;11540;52.130;5.648;2022-09-13T14:00:11;27.20;99.90
22747;DHT22;11540;52.130;5.648;2022-09-13T14:08:22;26.40;99.90
22747;DHT22;11540;52.130;5.648;2022-09-13T14:11:18;26.30;99.90
22747;DHT22;11540;52.130;5.648;2022-09-13T14:19:46;26.20;99.90
22747;DHT22;11540;52.130;5.648;2022-09-13T14:22:17;26.10;99.90
22747;DHT22;11540;52.130;5.648;2022-09-13T14:24:45;25.70;99.90
22747;DHT22;11540;52.130;5.648;2022-09-13T14:27:24;25.40;99.90
22747;DHT22;11540;52.130;5.648;2022-09-13T14:29:58;25.60;99.90
22747;DHT22;11540;52.130;5.648;2022-09-13T14:32:27;25.80;99.90
22747;DHT22;11540;52.130;5.648;2022-09-13T14:35:02;26.10;99.90
22747;DHT22;11540;52.130;5.648;2022-09-13T14:37:34;26.20;99.90
22747;DHT22;11540;52.130;5.648;2022-09-13T14:42:39;25.80;99.90
22747;DHT22;11540;52.130;5.648;2022-09-13T14:45:05;25.50;99.90
22747;DHT22;11540;52.130;5.648;2022-09-13T14:47:49;25.20;99.90
22747;DHT22;11540;52.130;5.648;2022-09-13T14:50:22;25.10;99.90
22747;DHT22;11540;52.130;5.648;2022-09-13T14:52:56;25.10;99.90
22747;DHT22;11540;52.130;5.648;2022-09-13T14:55:30;25.10;99.90
22747;DHT22;11540;52.130;5.648;2022-09-13T14:58:03;25.20;99.90
22747;DHT22;11540;52.130;5.648;2022-09-13T15:00:44;25.20;99.90
22747;DHT22;11540;52.130;5.648;2022-09-13T15:03:13;25.10;99.90
22747;DHT22;11540;52.130;5.648;2022-09-13T15:05:40;25.30;99.90
22747;DHT22;11540;52.130;5.648;2022-09-13T15:08:42;25.40;99.90
22747;DHT22;11540;52.130;5.648;2022-09-13T15:11:25;25.40;99.90
22747;DHT22;11540;52.130;5.648;2022-09-13T15:14:17;25.10;99.90
22747;DHT22;11540;52.130;5.648;2022-09-13T15:16:57;24.80;99.90
22747;DHT22;11540;52.130;5.648;2022-09-13T15:19:48;24.80;99.90
22747;DHT22;11540;52.130;5.648;2022-09-13T15:22:28;24.70;99.90
22747;DHT22;11540;52.130;5.648;2022-09-13T15:24:57;24.60;99.90
22747;DHT22;11540;52.130;5.648;2022-09-13T15:27:31;24.50;99.90
22747;DHT22;11540;52.130;5.648;2022-09-13T15:29:59;24.20;99.90
22747;DHT22;11540;52.130;5.648;2022-09-13T15:34:58;24.20;99.90
22747;DHT22;11540;52.130;5.648;2022-09-13T15:37:30;24.10;99.90
22747;DHT22;11540;52.130;5.648;2022-09-13T15:40:19;24.00;99.90
22747;DHT22;11540;52.130;5.648;2022-09-13T15:42:46;23.80;99.90
22747;DHT22;11540;52.130;5.648;2022-09-13T15:45:12;23.60;99.90
22747;DHT22;11540;52.130;5.648;2022-09-13T15:47:38;23.50;99.90
22747;DHT22;11540;52.130;5.648;2022-09-13T15:50:04;23.50;99.90
22747;DHT22;11540;52.130;5.648;2022-09-13T15:52:30;23.50;99.90
22747;DHT22;11540;52.130;5.648;2022-09-13T15:54:56;23.50;99.90
22747;DHT22;11540;52.130;5.648;2022-09-13T15:57:24;23.60;99.90
22747;DHT22;11540;52.130;5.648;2022-09-13T15:59:51;23.50;99.90
22747;DHT22;11540;52.130;5.648;2022-09-13T16:02:20;23.40;99.90
22747;DHT22;11540;52.130;5.648;2022-09-13T16:04:47;23.30;99.90
22747;DHT22;11540;52.130;5.648;2022-09-13T16:07:13;23.10;99.90
22747;DHT22;11540;52.130;5.648;2022-09-13T16:09:38;23.10;99.90
22747;DHT22;11540;52.130;5.648;2022-09-13T16:12:04;23.00;99.90
22747;DHT22;11540;52.130;5.648;2022-09-13T16:14:30;23.00;99.90
22747;DHT22;11540;52.130;5.648;2022-09-13T16:16:55;22.90;99.90
22747;DHT22;11540;52.130;5.648;2022-09-13T16:19:22;23.10;99.90
22747;DHT22;11540;52.130;5.648;2022-09-13T16:21:48;23.10;99.90
22747;DHT22;11540;52.130;5.648;2022-09-13T16:24:14;23.10;99.90
22747;DHT22;11540;52.130;5.648;2022-09-13T16:26:40;22.90;99.90
22747;DHT22;11540;52.130;5.648;2022-09-13T16:29:06;22.60;99.90
22747;DHT22;11540;52.130;5.648;2022-09-13T16:31:31;22.50;99.90
22747;DHT22;11540;52.130;5.648;2022-09-13T16:33:57;22.40;99.90
22747;DHT22;11540;52.130;5.648;2022-09-13T16:36:23;22.30;99.90
22747;DHT22;11540;52.130;5.648;2022-09-13T16:38:48;22.30;99.90
22747;DHT22;11540;52.130;5.648;2022-09-13T16:41:14;22.30;99.90
22747;DHT22;11540;52.130;5.648;2022-09-13T16:43:39;22.10;99.90
22747;DHT22;11540;52.130;5.648;2022-09-13T16:46:09;21.80;99.90
22747;DHT22;11540;52.130;5.648;2022-09-13T16:48:35;21.70;99.90
22747;DHT22;11540;52.130;5.648;2022-09-13T16:51:02;21.50;99.90
22747;DHT22;11540;52.130;5.648;2022-09-13T16:53:31;21.40;99.90
22747;DHT22;11540;52.130;5.648;2022-09-13T16:56:05;21.30;99.90
22747;DHT22;11540;52.130;5.648;2022-09-13T16:58:30;21.20;99.90
22747;DHT22;11540;52.130;5.648;2022-09-13T17:00:56;21.00;99.90
22747;DHT22;11540;52.130;5.648;2022-09-13T17:03:22;20.90;99.90
22747;DHT22;11540;52.130;5.648;2022-09-13T17:06:07;20.90;99.90
22747;DHT22;11540;52.130;5.648;2022-09-13T17:08:34;20.90;99.90
22747;DHT22;11540;52.130;5.648;2022-09-13T17:11:04;20.80;99.90
22747;DHT22;11540;52.130;5.648;2022-09-13T17:13:30;20.70;99.90
22747;DHT22;11540;52.130;5.648;2022-09-13T17:15:55;20.70;99.90
22747;DHT22;11540;52.130;5.648;2022-09-13T17:18:21;20.80;99.90
22747;DHT22;11540;52.130;5.648;2022-09-13T17:20:48;20.70;99.90
22747;DHT22;11540;52.130;5.648;2022-09-13T17:23:14;20.60;99.90
22747;DHT22;11540;52.130;5.648;2022-09-13T17:25:47;20.50;99.90
22747;DHT22;11540;52.130;5.648;2022-09-13T17:28:15;20.50;99.90
22747;DHT22;11540;52.130;5.648;2022-09-13T17:30:40;20.40;99.90
22747;DHT22;11540;52.130;5.648;2022-09-13T17:33:06;20.40;99.90
22747;DHT22;11540;52.130;5.648;2022-09-13T17:35:33;20.40;99.90
22747;DHT22;11540;52.130;5.648;2022-09-13T17:38:00;20.30;99.90
22747;DHT22;11540;52.130;5.648;2022-09-13T17:40:26;20.30;99.90
22747;DHT22;11540;52.130;5.648;2022-09-13T17:42:52;20.20;99.90
22747;DHT22;11540;52.130;5.648;2022-09-13T17:45:17;20.10;99.90
22747;DHT22;11540;52.130;5.648;2022-09-13T17:47:43;20.00;99.90
22747;DHT22;11540;52.130;5.648;2022-09-13T17:50:08;20.00;99.90
22747;DHT22;11540;52.130;5.648;2022-09-13T17:52:34;19.90;99.90
22747;DHT22;11540;52.130;5.648;2022-09-13T17:55:00;19.80;99.90
22747;DHT22;11540;52.130;5.648;2022-09-13T17:57:25;19.70;99.90
22747;DHT22;11540;52.130;5.648;2022-09-13T17:59:52;19.60;99.90
22747;DHT22;11540;52.130;5.648;2022-09-13T18:02:19;19.60;99.90
22747;DHT22;11540;52.130;5.648;2022-09-13T18:04:46;19.50;99.90
22747;DHT22;11540;52.130;5.648;2022-09-13T18:07:11;19.40;99.90
22747;DHT22;11540;52.130;5.648;2022-09-13T18:09:37;19.40;99.90
22747;DHT22;11540;52.130;5.648;2022-09-13T18:12:04;19.30;99.90
22747;DHT22;11540;52.130;5.648;2022-09-13T18:14:30;19.30;99.90
22747;DHT22;11540;52.130;5.648;2022-09-13T18:16:57;19.20;99.90
22747;DHT22;11540;52.130;5.648;2022-09-13T18:19:23;19.10;99.90
22747;DHT22;11540;52.130;5.648;2022-09-13T18:21:49;19.10;99.90
22747;DHT22;11540;52.130;5.648;2022-09-13T18:24:14;19.00;99.90
22747;DHT22;11540;52.130;5.648;2022-09-13T18:26:40;18.90;99.90
22747;DHT22;11540;52.130;5.648;2022-09-13T18:29:09;18.80;99.90
22747;DHT22;11540;52.130;5.648;2022-09-13T18:31:35;18.90;99.90
22747;DHT22;11540;52.130;5.648;2022-09-13T18:34:06;18.80;99.90
22747;DHT22;11540;52.130;5.648;2022-09-13T18:36:33;18.80;99.90
22747;DHT22;11540;52.130;5.648;2022-09-13T18:38:59;18.70;99.90
22747;DHT22;11540;52.130;5.648;2022-09-13T18:41:36;18.70;99.90
22747;DHT22;11540;52.130;5.648;2022-09-13T18:44:02;18.70;99.90
22747;DHT22;11540;52.130;5.648;2022-09-13T18:46:32;18.60;99.90
22747;DHT22;11540;52.130;5.648;2022-09-13T18:48:59;18.70;99.90
22747;DHT22;11540;52.130;5.648;2022-09-13T18:51:28;18.60;99.90
22747;DHT22;11540;52.130;5.648;2022-09-13T18:53:54;18.60;99.90
22747;DHT22;11540;52.130;5.648;2022-09-13T18:56:20;18.50;99.90
22747;DHT22;11540;52.130;5.648;2022-09-13T18:58:47;18.50;99.90
22747;DHT22;11540;52.130;5.648;2022-09-13T19:01:15;18.50;99.90
22747;DHT22;11540;52.130;5.648;2022-09-13T19:03:55;18.50;99.90
22747;DHT22;11540;52.130;5.648;2022-09-13T19:06:34;18.40;99.90
22747;DHT22;11540;52.130;5.648;2022-09-13T19:09:01;18.40;99.90
22747;DHT22;11540;52.130;5.648;2022-09-13T19:11:31;18.30;99.90
22747;DHT22;11540;52.130;5.648;2022-09-13T19:13:57;18.20;99.90